sensor_id;sensor_type;location;lat;lon;timestamp;P1;durP1;ratioP1;P2;durP2;ratioP2
58756;SDS011;44527;47.460;19.016;2022-11-14T00:01:25;28.48;;;14.50;;
58756;SDS011;44527;47.460;19.016;2022-11-14T00:04:46;27.90;;;13.82;;
58756;SDS011;44527;47.460;19.016;2022-11-14T00:08:14;37.35;;;16.10;;
58756;SDS011;44527;47.460;19.016;2022-11-14T00:11:42;32.28;;;14.07;;
58756;SDS011;44527;47.460;19.016;2022-11-14T00:15:03;27.37;;;13.60;;
58756;SDS011;44527;47.460;19.016;2022-11-14T00:18:24;28.08;;;12.98;;
58756;SDS011;44527;47.460;19.016;2022-11-14T00:21:45;32.92;;;13.82;;
58756;SDS011;44527;47.460;19.016;2022-11-14T00:25:06;28.80;;;15.20;;
58756;SDS011;44527;47.460;19.016;2022-11-14T00:28:29;29.30;;;14.90;;
58756;SDS011;44527;47.460;19.016;2022-11-14T00:31:50;23.87;;;13.13;;
58756;SDS011;44527;47.460;19.016;2022-11-14T00:35:11;24.45;;;13.75;;
58756;SDS011;44527;47.460;19.016;2022-11-14T00:38:32;27.45;;;14.85;;
58756;SDS011;44527;47.460;19.016;2022-11-14T00:41:52;31.50;;;14.80;;
58756;SDS011;44527;47.460;19.016;2022-11-14T00:45:13;30.55;;;14.93;;
58756;SDS011;44527;47.460;19.016;2022-11-14T00:48:34;30.58;;;15.05;;
58756;SDS011;44527;47.460;19.016;2022-11-14T00:51:55;27.23;;;13.55;;
58756;SDS011;44527;47.460;19.016;2022-11-14T00:55:16;28.10;;;14.70;;
58756;SDS011;44527;47.460;19.016;2022-11-14T00:58:36;27.02;;;14.45;;
58756;SDS011;44527;47.460;19.016;2022-11-14T01:01:57;27.05;;;14.73;;
58756;SDS011;44527;47.460;19.016;2022-11-14T01:05:18;28.77;;;13.27;;
58756;SDS011;44527;47.460;19.016;2022-11-14T01:08:39;28.35;;;14.70;;
58756;SDS011;44527;47.460;19.016;2022-11-14T01:12:00;29.05;;;15.32;;
58756;SDS011;44527;47.460;19.016;2022-11-14T01:15:20;28.10;;;14.15;;
58756;SDS011;44527;47.460;19.016;2022-11-14T01:18:41;28.50;;;14.82;;
58756;SDS011;44527;47.460;19.016;2022-11-14T01:22:02;26.08;;;13.73;;
58756;SDS011;44527;47.460;19.016;2022-11-14T01:25:25;28.30;;;14.52;;
58756;SDS011;44527;47.460;19.016;2022-11-14T01:28:46;25.15;;;13.45;;
58756;SDS011;44527;47.460;19.016;2022-11-14T01:32:07;27.02;;;13.85;;
58756;SDS011;44527;47.460;19.016;2022-11-14T01:35:28;26.73;;;13.80;;
58756;SDS011;44527;47.460;19.016;2022-11-14T01:38:52;29.67;;;14.73;;
58756;SDS011;44527;47.460;19.016;2022-11-14T01:42:13;24.92;;;13.45;;
58756;SDS011;44527;47.460;19.016;2022-11-14T01:45:59;25.27;;;12.95;;
58756;SDS011;44527;47.460;19.016;2022-11-14T01:49:36;25.17;;;12.65;;
58756;SDS011;44527;47.460;19.016;2022-11-14T01:52:59;26.05;;;13.62;;
58756;SDS011;44527;47.460;19.016;2022-11-14T01:56:22;30.60;;;13.02;;
58756;SDS011;44527;47.460;19.016;2022-11-14T01:59:50;29.27;;;13.02;;
58756;SDS011;44527;47.460;19.016;2022-11-14T02:03:16;25.52;;;13.02;;
58756;SDS011;44527;47.460;19.016;2022-11-14T02:06:37;27.30;;;13.75;;
58756;SDS011;44527;47.460;19.016;2022-11-14T02:10:03;27.60;;;12.48;;
58756;SDS011;44527;47.460;19.016;2022-11-14T02:13:27;31.40;;;12.73;;
58756;SDS011;44527;47.460;19.016;2022-11-14T02:16:48;27.33;;;12.88;;
58756;SDS011;44527;47.460;19.016;2022-11-14T02:20:29;28.50;;;13.88;;
58756;SDS011;44527;47.460;19.016;2022-11-14T02:23:55;28.73;;;12.55;;
58756;SDS011;44527;47.460;19.016;2022-11-14T02:27:16;24.85;;;13.98;;
58756;SDS011;44527;47.460;19.016;2022-11-14T02:30:37;29.40;;;13.55;;
58756;SDS011;44527;47.460;19.016;2022-11-14T02:33:57;32.65;;;16.70;;
58756;SDS011;44527;47.460;19.016;2022-11-14T02:37:18;28.55;;;15.45;;
58756;SDS011;44527;47.460;19.016;2022-11-14T02:40:39;29.27;;;14.93;;
58756;SDS011;44527;47.460;19.016;2022-11-14T02:44:00;28.62;;;14.57;;
58756;SDS011;44527;47.460;19.016;2022-11-14T02:47:20;32.97;;;15.50;;
58756;SDS011;44527;47.460;19.016;2022-11-14T02:50:46;27.30;;;14.43;;
58756;SDS011;44527;47.460;19.016;2022-11-14T02:54:08;28.58;;;14.27;;
58756;SDS011;44527;47.460;19.016;2022-11-14T02:57:29;31.10;;;14.82;;
58756;SDS011;44527;47.460;19.016;2022-11-14T03:00:49;29.87;;;15.10;;
58756;SDS011;44527;47.460;19.016;2022-11-14T03:04:30;29.87;;;14.10;;
58756;SDS011;44527;47.460;19.016;2022-11-14T03:07:52;30.30;;;14.40;;
58756;SDS011;44527;47.460;19.016;2022-11-14T03:11:14;27.52;;;13.98;;
58756;SDS011;44527;47.460;19.016;2022-11-14T03:14:35;28.20;;;13.65;;
58756;SDS011;44527;47.460;19.016;2022-11-14T03:17:55;33.60;;;15.07;;
58756;SDS011;44527;47.460;19.016;2022-11-14T03:21:20;33.42;;;14.02;;
58756;SDS011;44527;47.460;19.016;2022-11-14T03:24:41;28.02;;;14.40;;
58756;SDS011;44527;47.460;19.016;2022-11-14T03:28:02;27.48;;;13.10;;
58756;SDS011;44527;47.460;19.016;2022-11-14T03:31:23;26.45;;;13.62;;
58756;SDS011;44527;47.460;19.016;2022-11-14T03:34:44;27.08;;;13.07;;
58756;SDS011;44527;47.460;19.016;2022-11-14T03:38:05;27.70;;;13.18;;
58756;SDS011;44527;47.460;19.016;2022-11-14T03:41:25;25.65;;;13.00;;
58756;SDS011;44527;47.460;19.016;2022-11-14T03:44:46;30.75;;;14.43;;
58756;SDS011;44527;47.460;19.016;2022-11-14T03:48:07;26.08;;;13.48;;
58756;SDS011;44527;47.460;19.016;2022-11-14T03:51:27;25.27;;;12.37;;
58756;SDS011;44527;47.460;19.016;2022-11-14T03:54:49;22.25;;;11.55;;
58756;SDS011;44527;47.460;19.016;2022-11-14T03:58:11;25.73;;;12.77;;
58756;SDS011;44527;47.460;19.016;2022-11-14T04:01:31;26.83;;;13.30;;
58756;SDS011;44527;47.460;19.016;2022-11-14T04:04:52;26.33;;;13.20;;
58756;SDS011;44527;47.460;19.016;2022-11-14T04:08:13;23.50;;;12.10;;
58756;SDS011;44527;47.460;19.016;2022-11-14T04:11:34;26.80;;;13.52;;
58756;SDS011;44527;47.460;19.016;2022-11-14T04:14:54;28.60;;;13.57;;
58756;SDS011;44527;47.460;19.016;2022-11-14T04:18:15;27.30;;;13.15;;
58756;SDS011;44527;47.460;19.016;2022-11-14T04:21:36;28.20;;;13.38;;
58756;SDS011;44527;47.460;19.016;2022-11-14T04:24:57;27.67;;;13.52;;
58756;SDS011;44527;47.460;19.016;2022-11-14T04:28:18;24.95;;;13.45;;
58756;SDS011;44527;47.460;19.016;2022-11-14T04:31:38;28.17;;;13.48;;
58756;SDS011;44527;47.460;19.016;2022-11-14T04:34:59;29.48;;;13.80;;
58756;SDS011;44527;47.460;19.016;2022-11-14T04:38:20;30.67;;;13.90;;
58756;SDS011;44527;47.460;19.016;2022-11-14T04:41:41;26.83;;;13.25;;
58756;SDS011;44527;47.460;19.016;2022-11-14T04:45:02;27.70;;;13.32;;
58756;SDS011;44527;47.460;19.016;2022-11-14T04:48:23;28.83;;;13.35;;
58756;SDS011;44527;47.460;19.016;2022-11-14T04:51:44;24.87;;;13.05;;
58756;SDS011;44527;47.460;19.016;2022-11-14T04:55:05;27.27;;;13.73;;
58756;SDS011;44527;47.460;19.016;2022-11-14T04:58:26;25.95;;;12.82;;
58756;SDS011;44527;47.460;19.016;2022-11-14T05:01:47;23.42;;;12.10;;
58756;SDS011;44527;47.460;19.016;2022-11-14T05:05:08;29.75;;;13.10;;
58756;SDS011;44527;47.460;19.016;2022-11-14T05:08:29;27.65;;;13.98;;
58756;SDS011;44527;47.460;19.016;2022-11-14T05:11:50;26.55;;;13.27;;
58756;SDS011;44527;47.460;19.016;2022-11-14T05:15:11;28.90;;;12.73;;
58756;SDS011;44527;47.460;19.016;2022-11-14T05:18:32;27.95;;;13.55;;
58756;SDS011;44527;47.460;19.016;2022-11-14T05:21:52;29.87;;;14.07;;
58756;SDS011;44527;47.460;19.016;2022-11-14T05:25:13;31.95;;;13.73;;
58756;SDS011;44527;47.460;19.016;2022-11-14T05:28:34;28.58;;;14.13;;
58756;SDS011;44527;47.460;19.016;2022-11-14T05:31:55;28.80;;;14.60;;
58756;SDS011;44527;47.460;19.016;2022-11-14T05:35:17;29.90;;;14.07;;
58756;SDS011;44527;47.460;19.016;2022-11-14T05:38:38;32.50;;;16.30;;
58756;SDS011;44527;47.460;19.016;2022-11-14T05:41:59;38.85;;;16.12;;
58756;SDS011;44527;47.460;19.016;2022-11-14T05:45:20;30.23;;;15.57;;
58756;SDS011;44527;47.460;19.016;2022-11-14T05:48:42;35.20;;;15.57;;
58756;SDS011;44527;47.460;19.016;2022-11-14T05:52:03;32.95;;;14.95;;
58756;SDS011;44527;47.460;19.016;2022-11-14T05:55:25;29.02;;;14.13;;
58756;SDS011;44527;47.460;19.016;2022-11-14T05:58:46;32.30;;;14.38;;
58756;SDS011;44527;47.460;19.016;2022-11-14T06:02:07;27.27;;;14.38;;
58756;SDS011;44527;47.460;19.016;2022-11-14T06:05:30;30.95;;;14.75;;
58756;SDS011;44527;47.460;19.016;2022-11-14T06:08:51;27.17;;;13.02;;
58756;SDS011;44527;47.460;19.016;2022-11-14T06:12:12;26.02;;;13.15;;
58756;SDS011;44527;47.460;19.016;2022-11-14T06:15:33;27.58;;;13.80;;
58756;SDS011;44527;47.460;19.016;2022-11-14T06:18:53;26.65;;;13.82;;
58756;SDS011;44527;47.460;19.016;2022-11-14T06:22:14;26.83;;;14.57;;
58756;SDS011;44527;47.460;19.016;2022-11-14T06:25:35;31.50;;;13.68;;
58756;SDS011;44527;47.460;19.016;2022-11-14T06:28:56;27.30;;;14.07;;
58756;SDS011;44527;47.460;19.016;2022-11-14T06:32:18;31.15;;;13.25;;
58756;SDS011;44527;47.460;19.016;2022-11-14T06:35:39;30.12;;;14.65;;
58756;SDS011;44527;47.460;19.016;2022-11-14T06:39:00;37.50;;;16.23;;
58756;SDS011;44527;47.460;19.016;2022-11-14T06:42:20;44.78;;;17.35;;
58756;SDS011;44527;47.460;19.016;2022-11-14T06:45:41;65.35;;;22.92;;
58756;SDS011;44527;47.460;19.016;2022-11-14T06:49:02;56.13;;;21.35;;
58756;SDS011;44527;47.460;19.016;2022-11-14T06:52:23;63.95;;;23.83;;
58756;SDS011;44527;47.460;19.016;2022-11-14T06:55:58;30.20;;;15.57;;
58756;SDS011;44527;47.460;19.016;2022-11-14T06:59:21;49.83;;;21.55;;
58756;SDS011;44527;47.460;19.016;2022-11-14T07:02:44;47.00;;;18.33;;
58756;SDS011;44527;47.460;19.016;2022-11-14T07:06:05;35.50;;;15.80;;
58756;SDS011;44527;47.460;19.016;2022-11-14T07:09:27;31.20;;;14.75;;
58756;SDS011;44527;47.460;19.016;2022-11-14T07:12:49;29.60;;;14.50;;
58756;SDS011;44527;47.460;19.016;2022-11-14T07:16:10;33.85;;;14.68;;
58756;SDS011;44527;47.460;19.016;2022-11-14T07:19:34;42.25;;;18.17;;
58756;SDS011;44527;47.460;19.016;2022-11-14T07:22:55;37.75;;;16.17;;
58756;SDS011;44527;47.460;19.016;2022-11-14T07:26:16;35.17;;;18.65;;
58756;SDS011;44527;47.460;19.016;2022-11-14T07:29:39;45.20;;;19.48;;
58756;SDS011;44527;47.460;19.016;2022-11-14T07:32:59;37.35;;;17.80;;
58756;SDS011;44527;47.460;19.016;2022-11-14T07:36:20;38.17;;;17.50;;
58756;SDS011;44527;47.460;19.016;2022-11-14T07:39:41;54.05;;;18.98;;
58756;SDS011;44527;47.460;19.016;2022-11-14T07:43:02;49.63;;;19.48;;
58756;SDS011;44527;47.460;19.016;2022-11-14T07:46:23;70.18;;;21.48;;
58756;SDS011;44527;47.460;19.016;2022-11-14T07:49:44;31.85;;;16.02;;
58756;SDS011;44527;47.460;19.016;2022-11-14T07:53:05;42.60;;;16.98;;
58756;SDS011;44527;47.460;19.016;2022-11-14T07:56:28;39.45;;;17.50;;
58756;SDS011;44527;47.460;19.016;2022-11-14T07:59:49;40.38;;;17.00;;
58756;SDS011;44527;47.460;19.016;2022-11-14T08:03:17;32.45;;;16.10;;
58756;SDS011;44527;47.460;19.016;2022-11-14T08:06:38;34.30;;;17.45;;
58756;SDS011;44527;47.460;19.016;2022-11-14T08:09:59;32.17;;;16.05;;
58756;SDS011;44527;47.460;19.016;2022-11-14T08:13:20;34.58;;;16.05;;
58756;SDS011;44527;47.460;19.016;2022-11-14T08:16:55;32.25;;;15.27;;
58756;SDS011;44527;47.460;19.016;2022-11-14T08:20:17;35.08;;;17.20;;
58756;SDS011;44527;47.460;19.016;2022-11-14T08:23:40;30.15;;;16.12;;
58756;SDS011;44527;47.460;19.016;2022-11-14T08:27:16;30.92;;;15.93;;
58756;SDS011;44527;47.460;19.016;2022-11-14T08:31:12;32.72;;;16.42;;
58756;SDS011;44527;47.460;19.016;2022-11-14T08:34:33;31.67;;;16.33;;
58756;SDS011;44527;47.460;19.016;2022-11-14T08:37:54;33.17;;;15.02;;
58756;SDS011;44527;47.460;19.016;2022-11-14T08:41:27;37.33;;;16.87;;
58756;SDS011;44527;47.460;19.016;2022-11-14T08:46:00;35.60;;;17.00;;
58756;SDS011;44527;47.460;19.016;2022-11-14T08:49:44;26.17;;;14.93;;
58756;SDS011;44527;47.460;19.016;2022-11-14T08:53:05;30.98;;;15.95;;
58756;SDS011;44527;47.460;19.016;2022-11-14T08:56:26;36.13;;;15.90;;
58756;SDS011;44527;47.460;19.016;2022-11-14T08:59:47;33.65;;;17.50;;
58756;SDS011;44527;47.460;19.016;2022-11-14T09:03:11;33.67;;;16.42;;
58756;SDS011;44527;47.460;19.016;2022-11-14T09:06:34;34.08;;;16.20;;
58756;SDS011;44527;47.460;19.016;2022-11-14T09:09:55;33.80;;;16.70;;
58756;SDS011;44527;47.460;19.016;2022-11-14T09:13:16;31.65;;;16.15;;
58756;SDS011;44527;47.460;19.016;2022-11-14T09:16:37;39.58;;;16.98;;
58756;SDS011;44527;47.460;19.016;2022-11-14T09:19:58;42.55;;;19.05;;
58756;SDS011;44527;47.460;19.016;2022-11-14T09:23:18;30.33;;;16.42;;
58756;SDS011;44527;47.460;19.016;2022-11-14T09:26:55;29.37;;;16.40;;
58756;SDS011;44527;47.460;19.016;2022-11-14T09:31:08;34.80;;;17.02;;
58756;SDS011;44527;47.460;19.016;2022-11-14T09:35:20;34.17;;;17.52;;
58756;SDS011;44527;47.460;19.016;2022-11-14T09:39:13;35.53;;;17.35;;
58756;SDS011;44527;47.460;19.016;2022-11-14T09:50:18;34.22;;;18.05;;
58756;SDS011;44527;47.460;19.016;2022-11-14T09:53:46;44.50;;;18.23;;
58756;SDS011;44527;47.460;19.016;2022-11-14T09:57:13;37.45;;;18.52;;
58756;SDS011;44527;47.460;19.016;2022-11-14T10:00:47;35.33;;;17.62;;
58756;SDS011;44527;47.460;19.016;2022-11-14T10:04:21;36.88;;;18.35;;
58756;SDS011;44527;47.460;19.016;2022-11-14T10:12:04;31.23;;;18.12;;
58756;SDS011;44527;47.460;19.016;2022-11-14T10:15:36;36.88;;;17.40;;
58756;SDS011;44527;47.460;19.016;2022-11-14T10:33:14;33.08;;;17.98;;
58756;SDS011;44527;47.460;19.016;2022-11-14T10:36:56;39.97;;;17.15;;
58756;SDS011;44527;47.460;19.016;2022-11-14T10:40:29;36.38;;;18.45;;
58756;SDS011;44527;47.460;19.016;2022-11-14T10:43:59;40.75;;;18.30;;
58756;SDS011;44527;47.460;19.016;2022-11-14T10:47:21;42.08;;;19.55;;
58756;SDS011;44527;47.460;19.016;2022-11-14T10:50:50;35.22;;;17.90;;
58756;SDS011;44527;47.460;19.016;2022-11-14T10:57:54;34.53;;;17.35;;
58756;SDS011;44527;47.460;19.016;2022-11-14T11:05:10;35.63;;;18.02;;
58756;SDS011;44527;47.460;19.016;2022-11-14T11:08:39;28.85;;;17.87;;
58756;SDS011;44527;47.460;19.016;2022-11-14T11:12:21;29.27;;;16.87;;
58756;SDS011;44527;47.460;19.016;2022-11-14T11:15:43;31.62;;;18.95;;
58756;SDS011;44527;47.460;19.016;2022-11-14T11:19:30;34.58;;;19.00;;
58756;SDS011;44527;47.460;19.016;2022-11-14T11:26:47;34.30;;;18.02;;
58756;SDS011;44527;47.460;19.016;2022-11-14T11:30:18;34.40;;;17.73;;
58756;SDS011;44527;47.460;19.016;2022-11-14T11:33:44;35.83;;;18.52;;
58756;SDS011;44527;47.460;19.016;2022-11-14T11:37:11;35.75;;;18.12;;
58756;SDS011;44527;47.460;19.016;2022-11-14T11:40:37;37.95;;;18.10;;
58756;SDS011;44527;47.460;19.016;2022-11-14T11:44:04;31.40;;;17.70;;
58756;SDS011;44527;47.460;19.016;2022-11-14T11:47:29;38.80;;;16.65;;
58756;SDS011;44527;47.460;19.016;2022-11-14T11:50:55;34.90;;;18.83;;
58756;SDS011;44527;47.460;19.016;2022-11-14T11:54:21;32.58;;;18.30;;
58756;SDS011;44527;47.460;19.016;2022-11-14T11:57:55;32.15;;;16.87;;
58756;SDS011;44527;47.460;19.016;2022-11-14T12:01:22;41.40;;;17.87;;
58756;SDS011;44527;47.460;19.016;2022-11-14T12:04:43;38.20;;;17.48;;
58756;SDS011;44527;47.460;19.016;2022-11-14T12:08:18;34.15;;;17.42;;
58756;SDS011;44527;47.460;19.016;2022-11-14T12:11:54;32.63;;;17.05;;
58756;SDS011;44527;47.460;19.016;2022-11-14T12:27:20;37.17;;;16.50;;
58756;SDS011;44527;47.460;19.016;2022-11-14T12:30:46;29.10;;;15.98;;
58756;SDS011;44527;47.460;19.016;2022-11-14T12:34:28;31.15;;;16.40;;
58756;SDS011;44527;47.460;19.016;2022-11-14T12:37:53;27.60;;;13.68;;
58756;SDS011;44527;47.460;19.016;2022-11-14T12:41:26;24.65;;;13.18;;
58756;SDS011;44527;47.460;19.016;2022-11-14T12:44:49;26.77;;;13.18;;
58756;SDS011;44527;47.460;19.016;2022-11-14T12:51:50;27.98;;;12.98;;
58756;SDS011;44527;47.460;19.016;2022-11-14T13:02:25;23.90;;;11.10;;
58756;SDS011;44527;47.460;19.016;2022-11-14T13:16:50;23.58;;;12.48;;
58756;SDS011;44527;47.460;19.016;2022-11-14T13:20:30;25.57;;;11.70;;
58756;SDS011;44527;47.460;19.016;2022-11-14T13:24:17;19.70;;;10.80;;
58756;SDS011;44527;47.460;19.016;2022-11-14T13:27:39;18.48;;;10.85;;
58756;SDS011;44527;47.460;19.016;2022-11-14T13:31:21;19.42;;;10.77;;
58756;SDS011;44527;47.460;19.016;2022-11-14T13:35:03;26.17;;;10.75;;
58756;SDS011;44527;47.460;19.016;2022-11-14T14:32:36;21.58;;;10.73;;
58756;SDS011;44527;47.460;19.016;2022-11-14T14:36:25;22.50;;;10.50;;
58756;SDS011;44527;47.460;19.016;2022-11-14T14:39:59;25.92;;;11.70;;
58756;SDS011;44527;47.460;19.016;2022-11-14T14:43:31;26.08;;;12.73;;
58756;SDS011;44527;47.460;19.016;2022-11-14T14:46:54;25.40;;;11.90;;
58756;SDS011;44527;47.460;19.016;2022-11-14T14:50:23;24.90;;;11.55;;
58756;SDS011;44527;47.460;19.016;2022-11-14T14:53:50;24.92;;;12.20;;
58756;SDS011;44527;47.460;19.016;2022-11-14T14:57:17;24.27;;;11.38;;
58756;SDS011;44527;47.460;19.016;2022-11-14T15:00:51;24.50;;;11.60;;
58756;SDS011;44527;47.460;19.016;2022-11-14T15:04:34;21.60;;;12.10;;
58756;SDS011;44527;47.460;19.016;2022-11-14T15:08:01;26.27;;;13.77;;
58756;SDS011;44527;47.460;19.016;2022-11-14T15:11:23;25.25;;;13.23;;
58756;SDS011;44527;47.460;19.016;2022-11-14T15:14:52;31.33;;;14.18;;
58756;SDS011;44527;47.460;19.016;2022-11-14T15:18:25;32.90;;;13.32;;
58756;SDS011;44527;47.460;19.016;2022-11-14T15:22:04;26.62;;;13.45;;
58756;SDS011;44527;47.460;19.016;2022-11-14T15:25:36;35.33;;;13.80;;
58756;SDS011;44527;47.460;19.016;2022-11-14T15:29:03;46.83;;;13.88;;
58756;SDS011;44527;47.460;19.016;2022-11-14T15:32:46;36.95;;;14.40;;
58756;SDS011;44527;47.460;19.016;2022-11-14T15:36:13;27.35;;;13.13;;
58756;SDS011;44527;47.460;19.016;2022-11-14T15:39:39;33.03;;;14.77;;
58756;SDS011;44527;47.460;19.016;2022-11-14T15:46:54;27.37;;;12.98;;
58756;SDS011;44527;47.460;19.016;2022-11-14T15:53:38;34.03;;;15.02;;
58756;SDS011;44527;47.460;19.016;2022-11-14T15:57:12;29.30;;;13.57;;
58756;SDS011;44527;47.460;19.016;2022-11-14T16:00:35;26.60;;;13.75;;
58756;SDS011;44527;47.460;19.016;2022-11-14T16:04:20;33.22;;;15.20;;
58756;SDS011;44527;47.460;19.016;2022-11-14T16:07:42;30.27;;;15.10;;
58756;SDS011;44527;47.460;19.016;2022-11-14T16:11:04;39.53;;;17.58;;
